sensor_id;sensor_type;location;lat;lon;timestamp;P1;durP1;ratioP1;P2;durP2;ratioP2
8665;SDS011;4370;48.916;8.380;2022-10-16T00:01:06;1.20;;;1.10;;
8665;SDS011;4370;48.916;8.380;2022-10-16T00:03:37;2.73;;;1.10;;
8665;SDS011;4370;48.916;8.380;2022-10-16T00:06:04;1.27;;;1.17;;
8665;SDS011;4370;48.916;8.380;2022-10-16T00:08:30;1.23;;;1.13;;
8665;SDS011;4370;48.916;8.380;2022-10-16T00:11:16;1.20;;;1.10;;
8665;SDS011;4370;48.916;8.380;2022-10-16T00:13:44;1.10;;;1.00;;
8665;SDS011;4370;48.916;8.380;2022-10-16T00:16:12;1.33;;;1.23;;
8665;SDS011;4370;48.916;8.380;2022-10-16T00:18:38;1.43;;;1.20;;
8665;SDS011;4370;48.916;8.380;2022-10-16T00:21:05;2.30;;;1.40;;
8665;SDS011;4370;48.916;8.380;2022-10-16T00:23:37;1.00;;;1.00;;
8665;SDS011;4370;48.916;8.380;2022-10-16T00:26:04;1.00;;;1.00;;
8665;SDS011;4370;48.916;8.380;2022-10-16T00:28:32;1.80;;;1.13;;
8665;SDS011;4370;48.916;8.380;2022-10-16T00:30:58;4.90;;;1.20;;
8665;SDS011;4370;48.916;8.380;2022-10-16T00:33:27;2.30;;;1.67;;
8665;SDS011;4370;48.916;8.380;2022-10-16T00:35:53;1.53;;;1.30;;
8665;SDS011;4370;48.916;8.380;2022-10-16T00:38:18;4.77;;;1.20;;
8665;SDS011;4370;48.916;8.380;2022-10-16T00:40:44;6.60;;;1.40;;
8665;SDS011;4370;48.916;8.380;2022-10-16T00:43:14;1.93;;;1.30;;
8665;SDS011;4370;48.916;8.380;2022-10-16T00:45:59;3.37;;;1.37;;
8665;SDS011;4370;48.916;8.380;2022-10-16T00:48:26;1.33;;;1.13;;
8665;SDS011;4370;48.916;8.380;2022-10-16T00:50:52;2.50;;;1.30;;
8665;SDS011;4370;48.916;8.380;2022-10-16T00:53:18;1.10;;;1.10;;
8665;SDS011;4370;48.916;8.380;2022-10-16T00:55:44;1.83;;;1.10;;
8665;SDS011;4370;48.916;8.380;2022-10-16T00:58:11;1.80;;;1.07;;
8665;SDS011;4370;48.916;8.380;2022-10-16T01:00:37;1.73;;;1.20;;
8665;SDS011;4370;48.916;8.380;2022-10-16T01:03:21;1.80;;;1.10;;
8665;SDS011;4370;48.916;8.380;2022-10-16T01:09:10;1.20;;;1.10;;
8665;SDS011;4370;48.916;8.380;2022-10-16T01:11:38;2.10;;;1.23;;
8665;SDS011;4370;48.916;8.380;2022-10-16T01:14:14;1.40;;;1.20;;
8665;SDS011;4370;48.916;8.380;2022-10-16T01:16:59;2.30;;;1.10;;
8665;SDS011;4370;48.916;8.380;2022-10-16T01:22:30;1.30;;;1.20;;
8665;SDS011;4370;48.916;8.380;2022-10-16T01:25:05;4.70;;;1.40;;
8665;SDS011;4370;48.916;8.380;2022-10-16T01:27:36;1.30;;;1.20;;
8665;SDS011;4370;48.916;8.380;2022-10-16T01:30:27;1.40;;;1.10;;
8665;SDS011;4370;48.916;8.380;2022-10-16T01:32:54;1.23;;;1.13;;
8665;SDS011;4370;48.916;8.380;2022-10-16T01:35:32;2.43;;;1.10;;
8665;SDS011;4370;48.916;8.380;2022-10-16T01:38:03;2.80;;;1.20;;
8665;SDS011;4370;48.916;8.380;2022-10-16T01:40:33;1.60;;;1.10;;
8665;SDS011;4370;48.916;8.380;2022-10-16T01:43:10;1.57;;;1.10;;
8665;SDS011;4370;48.916;8.380;2022-10-16T01:45:39;1.13;;;1.10;;
8665;SDS011;4370;48.916;8.380;2022-10-16T01:48:06;1.57;;;1.30;;
8665;SDS011;4370;48.916;8.380;2022-10-16T01:50:37;2.70;;;1.13;;
8665;SDS011;4370;48.916;8.380;2022-10-16T01:53:05;1.10;;;1.10;;
8665;SDS011;4370;48.916;8.380;2022-10-16T01:55:33;1.23;;;1.13;;
8665;SDS011;4370;48.916;8.380;2022-10-16T01:58:04;2.03;;;1.23;;
8665;SDS011;4370;48.916;8.380;2022-10-16T02:00:32;1.23;;;1.13;;
8665;SDS011;4370;48.916;8.380;2022-10-16T02:03:01;1.07;;;0.97;;
8665;SDS011;4370;48.916;8.380;2022-10-16T02:05:29;2.90;;;1.43;;
8665;SDS011;4370;48.916;8.380;2022-10-16T02:07:59;2.00;;;1.10;;
8665;SDS011;4370;48.916;8.380;2022-10-16T02:10:25;3.10;;;1.20;;
8665;SDS011;4370;48.916;8.380;2022-10-16T02:12:59;5.87;;;1.63;;
8665;SDS011;4370;48.916;8.380;2022-10-16T02:15:35;1.30;;;1.20;;
8665;SDS011;4370;48.916;8.380;2022-10-16T02:18:05;1.50;;;1.23;;
8665;SDS011;4370;48.916;8.380;2022-10-16T02:20:33;1.40;;;1.30;;
8665;SDS011;4370;48.916;8.380;2022-10-16T02:23:09;1.37;;;1.27;;
8665;SDS011;4370;48.916;8.380;2022-10-16T02:25:40;2.53;;;1.40;;
8665;SDS011;4370;48.916;8.380;2022-10-16T02:28:12;1.40;;;1.30;;
8665;SDS011;4370;48.916;8.380;2022-10-16T02:30:51;1.30;;;1.20;;
8665;SDS011;4370;48.916;8.380;2022-10-16T02:33:23;1.30;;;1.20;;
8665;SDS011;4370;48.916;8.380;2022-10-16T02:35:51;1.47;;;1.30;;
8665;SDS011;4370;48.916;8.380;2022-10-16T02:38:18;2.10;;;1.10;;
8665;SDS011;4370;48.916;8.380;2022-10-16T02:44:07;6.70;;;1.40;;
8665;SDS011;4370;48.916;8.380;2022-10-16T02:46:33;1.83;;;1.20;;
8665;SDS011;4370;48.916;8.380;2022-10-16T02:48:59;1.30;;;1.20;;
8665;SDS011;4370;48.916;8.380;2022-10-16T02:51:25;2.67;;;1.20;;
8665;SDS011;4370;48.916;8.380;2022-10-16T02:53:51;1.20;;;1.10;;
8665;SDS011;4370;48.916;8.380;2022-10-16T02:56:17;1.83;;;1.27;;
8665;SDS011;4370;48.916;8.380;2022-10-16T02:58:43;1.43;;;1.20;;
8665;SDS011;4370;48.916;8.380;2022-10-16T03:01:09;2.60;;;1.10;;
8665;SDS011;4370;48.916;8.380;2022-10-16T03:03:37;1.30;;;1.20;;
8665;SDS011;4370;48.916;8.380;2022-10-16T03:06:03;1.03;;;1.03;;
8665;SDS011;4370;48.916;8.380;2022-10-16T03:08:29;1.20;;;1.10;;
8665;SDS011;4370;48.916;8.380;2022-10-16T03:10:55;1.97;;;1.10;;
8665;SDS011;4370;48.916;8.380;2022-10-16T03:13:21;1.27;;;1.17;;
8665;SDS011;4370;48.916;8.380;2022-10-16T03:15:47;3.27;;;1.40;;
8665;SDS011;4370;48.916;8.380;2022-10-16T03:18:13;1.30;;;1.20;;
8665;SDS011;4370;48.916;8.380;2022-10-16T03:20:39;1.70;;;1.20;;
8665;SDS011;4370;48.916;8.380;2022-10-16T03:23:06;1.30;;;1.13;;
8665;SDS011;4370;48.916;8.380;2022-10-16T03:25:33;1.83;;;1.20;;
8665;SDS011;4370;48.916;8.380;2022-10-16T03:27:58;1.20;;;1.10;;
8665;SDS011;4370;48.916;8.380;2022-10-16T03:30:24;1.43;;;1.33;;
8665;SDS011;4370;48.916;8.380;2022-10-16T03:32:50;1.20;;;1.10;;
8665;SDS011;4370;48.916;8.380;2022-10-16T03:35:22;1.53;;;1.40;;
8665;SDS011;4370;48.916;8.380;2022-10-16T03:37:49;2.30;;;1.40;;
8665;SDS011;4370;48.916;8.380;2022-10-16T03:40:15;0.90;;;0.90;;
8665;SDS011;4370;48.916;8.380;2022-10-16T03:42:42;1.30;;;1.20;;
8665;SDS011;4370;48.916;8.380;2022-10-16T03:45:08;1.77;;;1.20;;
8665;SDS011;4370;48.916;8.380;2022-10-16T03:47:34;1.20;;;1.10;;
8665;SDS011;4370;48.916;8.380;2022-10-16T03:50:00;1.10;;;1.10;;
8665;SDS011;4370;48.916;8.380;2022-10-16T03:52:27;1.47;;;1.30;;
8665;SDS011;4370;48.916;8.380;2022-10-16T03:54:53;1.93;;;1.30;;
8665;SDS011;4370;48.916;8.380;2022-10-16T03:57:18;1.30;;;1.20;;
8665;SDS011;4370;48.916;8.380;2022-10-16T03:59:45;1.60;;;1.30;;
8665;SDS011;4370;48.916;8.380;2022-10-16T04:02:11;1.53;;;1.30;;
8665;SDS011;4370;48.916;8.380;2022-10-16T04:04:37;3.13;;;1.30;;
8665;SDS011;4370;48.916;8.380;2022-10-16T04:07:03;1.37;;;1.27;;
8665;SDS011;4370;48.916;8.380;2022-10-16T04:09:29;1.50;;;1.20;;
8665;SDS011;4370;48.916;8.380;2022-10-16T04:11:54;1.30;;;1.20;;
8665;SDS011;4370;48.916;8.380;2022-10-16T04:14:20;1.30;;;1.20;;
8665;SDS011;4370;48.916;8.380;2022-10-16T04:16:46;1.40;;;1.30;;
8665;SDS011;4370;48.916;8.380;2022-10-16T04:19:12;1.20;;;1.10;;
8665;SDS011;4370;48.916;8.380;2022-10-16T04:21:38;2.00;;;1.20;;
8665;SDS011;4370;48.916;8.380;2022-10-16T04:24:04;1.20;;;1.10;;
8665;SDS011;4370;48.916;8.380;2022-10-16T04:26:30;1.20;;;1.10;;
8665;SDS011;4370;48.916;8.380;2022-10-16T04:28:56;2.43;;;1.20;;
8665;SDS011;4370;48.916;8.380;2022-10-16T04:31:21;1.40;;;1.30;;
8665;SDS011;4370;48.916;8.380;2022-10-16T04:33:47;1.20;;;1.10;;
8665;SDS011;4370;48.916;8.380;2022-10-16T04:36:13;1.23;;;1.13;;
8665;SDS011;4370;48.916;8.380;2022-10-16T04:38:39;1.23;;;1.13;;
8665;SDS011;4370;48.916;8.380;2022-10-16T04:41:06;1.30;;;1.20;;
8665;SDS011;4370;48.916;8.380;2022-10-16T04:43:32;1.23;;;1.13;;
8665;SDS011;4370;48.916;8.380;2022-10-16T04:45:58;1.30;;;1.20;;
8665;SDS011;4370;48.916;8.380;2022-10-16T04:48:24;1.20;;;1.10;;
8665;SDS011;4370;48.916;8.380;2022-10-16T04:50:50;1.40;;;1.10;;
8665;SDS011;4370;48.916;8.380;2022-10-16T04:53:16;1.33;;;1.23;;
8665;SDS011;4370;48.916;8.380;2022-10-16T04:55:42;1.30;;;1.20;;
8665;SDS011;4370;48.916;8.380;2022-10-16T04:58:08;1.20;;;1.10;;
8665;SDS011;4370;48.916;8.380;2022-10-16T05:00:35;1.17;;;1.17;;
8665;SDS011;4370;48.916;8.380;2022-10-16T05:03:01;2.70;;;1.87;;
8665;SDS011;4370;48.916;8.380;2022-10-16T05:05:30;1.40;;;1.30;;
8665;SDS011;4370;48.916;8.380;2022-10-16T05:07:56;1.33;;;1.23;;
8665;SDS011;4370;48.916;8.380;2022-10-16T05:10:22;2.57;;;1.37;;
8665;SDS011;4370;48.916;8.380;2022-10-16T05:12:48;1.47;;;1.37;;
8665;SDS011;4370;48.916;8.380;2022-10-16T05:15:16;8.90;;;2.53;;
8665;SDS011;4370;48.916;8.380;2022-10-16T05:17:42;4.10;;;2.27;;
8665;SDS011;4370;48.916;8.380;2022-10-16T05:20:07;1.70;;;1.60;;
8665;SDS011;4370;48.916;8.380;2022-10-16T05:22:33;1.80;;;1.70;;
8665;SDS011;4370;48.916;8.380;2022-10-16T05:24:59;1.60;;;1.50;;
8665;SDS011;4370;48.916;8.380;2022-10-16T05:27:25;1.60;;;1.40;;
8665;SDS011;4370;48.916;8.380;2022-10-16T05:29:52;1.60;;;1.50;;
8665;SDS011;4370;48.916;8.380;2022-10-16T05:32:17;1.70;;;1.60;;
8665;SDS011;4370;48.916;8.380;2022-10-16T05:34:44;3.13;;;1.50;;
8665;SDS011;4370;48.916;8.380;2022-10-16T05:37:10;5.27;;;1.80;;
8665;SDS011;4370;48.916;8.380;2022-10-16T05:39:36;3.73;;;1.77;;
8665;SDS011;4370;48.916;8.380;2022-10-16T05:42:02;2.33;;;1.67;;
8665;SDS011;4370;48.916;8.380;2022-10-16T05:44:28;1.50;;;1.40;;
8665;SDS011;4370;48.916;8.380;2022-10-16T05:46:54;1.70;;;1.50;;
8665;SDS011;4370;48.916;8.380;2022-10-16T05:49:20;1.57;;;1.47;;
8665;SDS011;4370;48.916;8.380;2022-10-16T05:51:46;1.30;;;1.20;;
8665;SDS011;4370;48.916;8.380;2022-10-16T05:54:12;1.87;;;1.70;;
8665;SDS011;4370;48.916;8.380;2022-10-16T05:56:38;4.13;;;1.97;;
8665;SDS011;4370;48.916;8.380;2022-10-16T05:59:04;4.80;;;1.80;;
8665;SDS011;4370;48.916;8.380;2022-10-16T06:01:30;2.57;;;1.50;;
8665;SDS011;4370;48.916;8.380;2022-10-16T06:03:56;2.33;;;1.50;;
8665;SDS011;4370;48.916;8.380;2022-10-16T06:06:23;1.83;;;1.60;;
8665;SDS011;4370;48.916;8.380;2022-10-16T06:08:51;1.80;;;1.70;;
8665;SDS011;4370;48.916;8.380;2022-10-16T06:11:22;1.77;;;1.50;;
8665;SDS011;4370;48.916;8.380;2022-10-16T06:13:50;1.83;;;1.50;;
8665;SDS011;4370;48.916;8.380;2022-10-16T06:16:17;1.40;;;1.30;;
8665;SDS011;4370;48.916;8.380;2022-10-16T06:18:43;2.43;;;2.13;;
8665;SDS011;4370;48.916;8.380;2022-10-16T06:21:20;2.33;;;1.50;;
8665;SDS011;4370;48.916;8.380;2022-10-16T06:23:47;2.43;;;1.57;;
8665;SDS011;4370;48.916;8.380;2022-10-16T06:26:14;1.70;;;1.60;;
8665;SDS011;4370;48.916;8.380;2022-10-16T06:28:41;2.53;;;1.80;;
8665;SDS011;4370;48.916;8.380;2022-10-16T06:31:08;1.70;;;1.60;;
8665;SDS011;4370;48.916;8.380;2022-10-16T06:33:35;4.17;;;1.60;;
8665;SDS011;4370;48.916;8.380;2022-10-16T06:36:02;2.43;;;1.63;;
8665;SDS011;4370;48.916;8.380;2022-10-16T06:38:30;2.07;;;1.80;;
8665;SDS011;4370;48.916;8.380;2022-10-16T06:40:56;3.63;;;1.87;;
8665;SDS011;4370;48.916;8.380;2022-10-16T06:43:22;1.70;;;1.60;;
8665;SDS011;4370;48.916;8.380;2022-10-16T06:45:54;1.70;;;1.60;;
8665;SDS011;4370;48.916;8.380;2022-10-16T06:48:21;3.00;;;1.50;;
8665;SDS011;4370;48.916;8.380;2022-10-16T06:53:28;4.70;;;1.60;;
8665;SDS011;4370;48.916;8.380;2022-10-16T06:55:56;4.47;;;1.80;;
8665;SDS011;4370;48.916;8.380;2022-10-16T06:58:22;3.33;;;1.53;;
8665;SDS011;4370;48.916;8.380;2022-10-16T07:00:49;2.07;;;1.50;;
8665;SDS011;4370;48.916;8.380;2022-10-16T07:03:20;2.63;;;1.60;;
8665;SDS011;4370;48.916;8.380;2022-10-16T07:05:46;2.13;;;1.50;;
8665;SDS011;4370;48.916;8.380;2022-10-16T07:08:12;1.60;;;1.50;;
8665;SDS011;4370;48.916;8.380;2022-10-16T07:10:38;1.40;;;1.30;;
8665;SDS011;4370;48.916;8.380;2022-10-16T07:13:04;2.03;;;1.33;;
8665;SDS011;4370;48.916;8.380;2022-10-16T07:15:30;2.50;;;1.33;;
8665;SDS011;4370;48.916;8.380;2022-10-16T07:17:55;2.80;;;1.60;;
8665;SDS011;4370;48.916;8.380;2022-10-16T07:20:21;5.80;;;1.67;;
8665;SDS011;4370;48.916;8.380;2022-10-16T07:22:47;5.23;;;1.70;;
8665;SDS011;4370;48.916;8.380;2022-10-16T07:25:13;2.43;;;1.90;;
8665;SDS011;4370;48.916;8.380;2022-10-16T07:27:39;2.87;;;2.37;;
8665;SDS011;4370;48.916;8.380;2022-10-16T07:30:05;3.70;;;2.27;;
8665;SDS011;4370;48.916;8.380;2022-10-16T07:32:31;4.23;;;2.10;;
8665;SDS011;4370;48.916;8.380;2022-10-16T07:34:57;7.20;;;2.20;;
8665;SDS011;4370;48.916;8.380;2022-10-16T07:37:23;6.90;;;2.20;;
8665;SDS011;4370;48.916;8.380;2022-10-16T07:39:49;2.97;;;2.10;;
8665;SDS011;4370;48.916;8.380;2022-10-16T07:42:15;5.43;;;2.10;;
8665;SDS011;4370;48.916;8.380;2022-10-16T07:44:41;2.70;;;2.13;;
8665;SDS011;4370;48.916;8.380;2022-10-16T07:47:07;5.80;;;1.83;;
8665;SDS011;4370;48.916;8.380;2022-10-16T07:49:33;2.67;;;1.97;;
8665;SDS011;4370;48.916;8.380;2022-10-16T07:51:59;4.73;;;2.10;;
8665;SDS011;4370;48.916;8.380;2022-10-16T07:54:25;5.43;;;2.03;;
8665;SDS011;4370;48.916;8.380;2022-10-16T07:56:51;2.83;;;1.50;;
8665;SDS011;4370;48.916;8.380;2022-10-16T07:59:17;2.23;;;1.70;;
8665;SDS011;4370;48.916;8.380;2022-10-16T08:01:43;4.63;;;2.10;;
8665;SDS011;4370;48.916;8.380;2022-10-16T08:04:09;2.80;;;2.00;;
8665;SDS011;4370;48.916;8.380;2022-10-16T08:06:36;5.50;;;2.57;;
8665;SDS011;4370;48.916;8.380;2022-10-16T08:09:02;4.20;;;3.27;;
8665;SDS011;4370;48.916;8.380;2022-10-16T08:11:28;6.63;;;3.20;;
8665;SDS011;4370;48.916;8.380;2022-10-16T08:13:54;5.40;;;2.93;;
8665;SDS011;4370;48.916;8.380;2022-10-16T08:16:20;9.47;;;2.70;;
8665;SDS011;4370;48.916;8.380;2022-10-16T08:18:46;6.13;;;2.20;;
8665;SDS011;4370;48.916;8.380;2022-10-16T08:21:13;2.80;;;1.60;;
8665;SDS011;4370;48.916;8.380;2022-10-16T08:23:41;6.93;;;2.07;;
8665;SDS011;4370;48.916;8.380;2022-10-16T08:26:07;2.73;;;1.70;;
8665;SDS011;4370;48.916;8.380;2022-10-16T08:28:33;5.43;;;1.43;;
8665;SDS011;4370;48.916;8.380;2022-10-16T08:31:06;3.00;;;1.80;;
8665;SDS011;4370;48.916;8.380;2022-10-16T08:33:40;3.07;;;1.57;;
8665;SDS011;4370;48.916;8.380;2022-10-16T08:36:07;4.10;;;1.43;;
8665;SDS011;4370;48.916;8.380;2022-10-16T08:38:33;4.53;;;1.73;;
8665;SDS011;4370;48.916;8.380;2022-10-16T08:44:51;2.00;;;1.47;;
8665;SDS011;4370;48.916;8.380;2022-10-16T08:49:30;6.67;;;1.27;;
8665;SDS011;4370;48.916;8.380;2022-10-16T08:51:56;1.93;;;1.57;;
8665;SDS011;4370;48.916;8.380;2022-10-16T08:56:56;1.87;;;1.37;;
8665;SDS011;4370;48.916;8.380;2022-10-16T08:59:26;7.90;;;1.70;;
8665;SDS011;4370;48.916;8.380;2022-10-16T09:01:51;6.63;;;1.90;;
8665;SDS011;4370;48.916;8.380;2022-10-16T09:10:15;3.20;;;1.57;;
8665;SDS011;4370;48.916;8.380;2022-10-16T09:12:54;4.77;;;1.87;;
8665;SDS011;4370;48.916;8.380;2022-10-16T09:15:49;1.90;;;1.50;;
8665;SDS011;4370;48.916;8.380;2022-10-16T09:21:01;3.37;;;1.80;;
8665;SDS011;4370;48.916;8.380;2022-10-16T09:23:32;3.43;;;1.57;;
8665;SDS011;4370;48.916;8.380;2022-10-16T09:26:01;5.17;;;2.10;;
8665;SDS011;4370;48.916;8.380;2022-10-16T09:28:27;2.37;;;1.47;;
8665;SDS011;4370;48.916;8.380;2022-10-16T09:30:53;1.63;;;1.53;;
8665;SDS011;4370;48.916;8.380;2022-10-16T09:33:20;3.70;;;1.53;;
8665;SDS011;4370;48.916;8.380;2022-10-16T09:35:51;6.03;;;1.83;;
8665;SDS011;4370;48.916;8.380;2022-10-16T09:41:18;3.13;;;1.43;;
8665;SDS011;4370;48.916;8.380;2022-10-16T09:49:18;2.73;;;1.40;;
8665;SDS011;4370;48.916;8.380;2022-10-16T09:51:49;4.47;;;1.60;;
8665;SDS011;4370;48.916;8.380;2022-10-16T09:56:42;1.77;;;1.57;;
8665;SDS011;4370;48.916;8.380;2022-10-16T09:59:11;5.07;;;1.50;;
8665;SDS011;4370;48.916;8.380;2022-10-16T10:01:39;3.10;;;1.70;;
8665;SDS011;4370;48.916;8.380;2022-10-16T10:04:07;2.73;;;1.50;;
8665;SDS011;4370;48.916;8.380;2022-10-16T10:06:34;2.37;;;1.40;;
8665;SDS011;4370;48.916;8.380;2022-10-16T10:09:06;2.93;;;1.47;;
8665;SDS011;4370;48.916;8.380;2022-10-16T10:11:44;2.10;;;1.33;;
8665;SDS011;4370;48.916;8.380;2022-10-16T10:14:26;1.60;;;1.40;;
8665;SDS011;4370;48.916;8.380;2022-10-16T10:19:39;3.43;;;1.30;;
8665;SDS011;4370;48.916;8.380;2022-10-16T10:22:17;2.83;;;1.60;;
8665;SDS011;4370;48.916;8.380;2022-10-16T10:24:44;3.47;;;1.70;;
8665;SDS011;4370;48.916;8.380;2022-10-16T10:31:06;3.50;;;1.40;;
8665;SDS011;4370;48.916;8.380;2022-10-16T10:45:48;1.77;;;1.33;;
8665;SDS011;4370;48.916;8.380;2022-10-16T10:51:04;2.97;;;1.40;;
8665;SDS011;4370;48.916;8.380;2022-10-16T10:56:21;3.10;;;1.70;;
8665;SDS011;4370;48.916;8.380;2022-10-16T11:02:21;2.40;;;1.87;;
8665;SDS011;4370;48.916;8.380;2022-10-16T11:08:07;4.40;;;1.83;;
8665;SDS011;4370;48.916;8.380;2022-10-16T11:10:44;2.03;;;1.73;;
8665;SDS011;4370;48.916;8.380;2022-10-16T11:13:21;6.87;;;2.10;;
8665;SDS011;4370;48.916;8.380;2022-10-16T11:15:57;3.43;;;1.73;;
8665;SDS011;4370;48.916;8.380;2022-10-16T11:18:28;1.87;;;1.57;;
8665;SDS011;4370;48.916;8.380;2022-10-16T11:21:02;4.17;;;1.60;;
8665;SDS011;4370;48.916;8.380;2022-10-16T11:23:40;5.33;;;1.80;;
8665;SDS011;4370;48.916;8.380;2022-10-16T11:26:26;2.13;;;1.50;;
8665;SDS011;4370;48.916;8.380;2022-10-16T11:28:56;1.60;;;1.50;;
8665;SDS011;4370;48.916;8.380;2022-10-16T11:36:51;2.88;;;1.60;;
8665;SDS011;4370;48.916;8.380;2022-10-16T11:39:32;4.03;;;1.60;;
8665;SDS011;4370;48.916;8.380;2022-10-16T11:42:01;2.72;;;1.63;;
8665;SDS011;4370;48.916;8.380;2022-10-16T11:52:55;1.75;;;1.35;;
8665;SDS011;4370;48.916;8.380;2022-10-16T11:55:36;1.90;;;1.55;;
8665;SDS011;4370;48.916;8.380;2022-10-16T11:58:05;3.42;;;1.70;;
8665;SDS011;4370;48.916;8.380;2022-10-16T12:00:56;2.83;;;1.50;;
8665;SDS011;4370;48.916;8.380;2022-10-16T12:08:30;3.63;;;1.58;;
8665;SDS011;4370;48.916;8.380;2022-10-16T12:11:05;3.00;;;1.73;;
8665;SDS011;4370;48.916;8.380;2022-10-16T12:13:37;2.50;;;1.52;;
8665;SDS011;4370;48.916;8.380;2022-10-16T12:18:30;2.03;;;1.55;;
8665;SDS011;4370;48.916;8.380;2022-10-16T12:20:57;2.80;;;1.70;;
8665;SDS011;4370;48.916;8.380;2022-10-16T12:23:24;3.17;;;1.63;;
8665;SDS011;4370;48.916;8.380;2022-10-16T12:25:55;2.42;;;1.42;;
8665;SDS011;4370;48.916;8.380;2022-10-16T12:28:25;3.53;;;1.50;;
8665;SDS011;4370;48.916;8.380;2022-10-16T12:31:02;2.45;;;1.67;;
8665;SDS011;4370;48.916;8.380;2022-10-16T12:33:33;6.82;;;1.60;;
8665;SDS011;4370;48.916;8.380;2022-10-16T12:36:15;2.92;;;1.55;;
8665;SDS011;4370;48.916;8.380;2022-10-16T12:38:55;2.10;;;1.50;;
8665;SDS011;4370;48.916;8.380;2022-10-16T12:41:39;2.63;;;1.80;;
8665;SDS011;4370;48.916;8.380;2022-10-16T12:44:05;2.70;;;1.73;;
8665;SDS011;4370;48.916;8.380;2022-10-16T12:46:51;3.58;;;2.13;;
8665;SDS011;4370;48.916;8.380;2022-10-16T12:49:36;3.13;;;1.92;;
8665;SDS011;4370;48.916;8.380;2022-10-16T12:52:03;3.47;;;2.05;;
8665;SDS011;4370;48.916;8.380;2022-10-16T12:54:31;2.95;;;1.95;;
8665;SDS011;4370;48.916;8.380;2022-10-16T13:05:15;3.33;;;1.60;;
8665;SDS011;4370;48.916;8.380;2022-10-16T13:10:24;2.22;;;1.80;;
8665;SDS011;4370;48.916;8.380;2022-10-16T13:16:07;4.25;;;1.60;;
8665;SDS011;4370;48.916;8.380;2022-10-16T13:18:51;1.65;;;1.50;;
8665;SDS011;4370;48.916;8.380;2022-10-16T13:21:24;3.03;;;1.60;;
8665;SDS011;4370;48.916;8.380;2022-10-16T13:24:21;3.73;;;1.50;;
8665;SDS011;4370;48.916;8.380;2022-10-16T13:29:30;3.00;;;1.63;;
8665;SDS011;4370;48.916;8.380;2022-10-16T13:31:57;2.10;;;1.67;;
8665;SDS011;4370;48.916;8.380;2022-10-16T13:34:25;3.05;;;1.50;;
8665;SDS011;4370;48.916;8.380;2022-10-16T13:36:52;3.77;;;1.90;;
8665;SDS011;4370;48.916;8.380;2022-10-16T13:41:58;2.97;;;1.60;;
8665;SDS011;4370;48.916;8.380;2022-10-16T13:44:35;1.90;;;1.73;;
8665;SDS011;4370;48.916;8.380;2022-10-16T13:47:05;3.50;;;1.70;;
8665;SDS011;4370;48.916;8.380;2022-10-16T13:49:31;3.10;;;1.73;;
8665;SDS011;4370;48.916;8.380;2022-10-16T13:51:58;2.23;;;1.80;;
8665;SDS011;4370;48.916;8.380;2022-10-16T13:54:25;2.83;;;1.80;;
8665;SDS011;4370;48.916;8.380;2022-10-16T13:56:53;3.17;;;2.00;;
8665;SDS011;4370;48.916;8.380;2022-10-16T13:59:24;5.87;;;1.90;;
8665;SDS011;4370;48.916;8.380;2022-10-16T14:01:58;2.83;;;1.63;;
8665;SDS011;4370;48.916;8.380;2022-10-16T14:04:31;2.47;;;1.83;;
8665;SDS011;4370;48.916;8.380;2022-10-16T14:06:57;5.80;;;1.90;;
8665;SDS011;4370;48.916;8.380;2022-10-16T14:09:25;3.50;;;1.70;;
8665;SDS011;4370;48.916;8.380;2022-10-16T14:11:55;2.00;;;1.80;;
8665;SDS011;4370;48.916;8.380;2022-10-16T14:14:42;4.17;;;2.17;;
8665;SDS011;4370;48.916;8.380;2022-10-16T14:17:16;2.23;;;1.67;;
8665;SDS011;4370;48.916;8.380;2022-10-16T14:19:46;4.97;;;2.10;;
8665;SDS011;4370;48.916;8.380;2022-10-16T14:24:58;4.50;;;1.90;;
8665;SDS011;4370;48.916;8.380;2022-10-16T14:27:26;6.50;;;2.00;;
8665;SDS011;4370;48.916;8.380;2022-10-16T14:30:12;3.50;;;2.20;;
8665;SDS011;4370;48.916;8.380;2022-10-16T14:32:52;4.87;;;2.03;;
8665;SDS011;4370;48.916;8.380;2022-10-16T14:35:41;4.03;;;1.90;;
8665;SDS011;4370;48.916;8.380;2022-10-16T14:38:14;3.90;;;2.10;;
8665;SDS011;4370;48.916;8.380;2022-10-16T14:40:46;2.63;;;1.77;;
8665;SDS011;4370;48.916;8.380;2022-10-16T14:43:20;3.47;;;2.07;;
8665;SDS011;4370;48.916;8.380;2022-10-16T14:45:54;1.83;;;1.73;;
8665;SDS011;4370;48.916;8.380;2022-10-16T14:48:21;2.70;;;2.20;;
8665;SDS011;4370;48.916;8.380;2022-10-16T14:50:47;3.03;;;1.80;;
8665;SDS011;4370;48.916;8.380;2022-10-16T14:53:13;2.57;;;2.00;;
8665;SDS011;4370;48.916;8.380;2022-10-16T14:55:40;2.47;;;2.00;;
8665;SDS011;4370;48.916;8.380;2022-10-16T14:58:10;3.87;;;2.03;;
8665;SDS011;4370;48.916;8.380;2022-10-16T15:00:41;2.23;;;1.73;;
8665;SDS011;4370;48.916;8.380;2022-10-16T15:03:07;2.77;;;2.03;;
8665;SDS011;4370;48.916;8.380;2022-10-16T15:05:33;2.40;;;1.83;;
8665;SDS011;4370;48.916;8.380;2022-10-16T15:07:58;3.97;;;2.17;;
8665;SDS011;4370;48.916;8.380;2022-10-16T15:10:25;1.87;;;1.77;;
8665;SDS011;4370;48.916;8.380;2022-10-16T15:12:53;1.70;;;1.60;;
8665;SDS011;4370;48.916;8.380;2022-10-16T15:17:52;4.57;;;2.30;;
8665;SDS011;4370;48.916;8.380;2022-10-16T15:20:20;3.03;;;2.10;;
8665;SDS011;4370;48.916;8.380;2022-10-16T15:22:46;2.67;;;2.13;;
8665;SDS011;4370;48.916;8.380;2022-10-16T15:25:20;2.50;;;2.20;;
8665;SDS011;4370;48.916;8.380;2022-10-16T15:27:51;4.57;;;2.53;;
8665;SDS011;4370;48.916;8.380;2022-10-16T15:30:17;2.63;;;2.43;;
8665;SDS011;4370;48.916;8.380;2022-10-16T15:32:43;2.53;;;2.07;;
8665;SDS011;4370;48.916;8.380;2022-10-16T15:35:09;4.17;;;2.50;;
8665;SDS011;4370;48.916;8.380;2022-10-16T15:37:35;2.50;;;2.30;;
8665;SDS011;4370;48.916;8.380;2022-10-16T15:40:01;3.40;;;2.63;;
8665;SDS011;4370;48.916;8.380;2022-10-16T15:42:27;4.23;;;2.43;;
8665;SDS011;4370;48.916;8.380;2022-10-16T15:44:52;3.40;;;2.27;;
8665;SDS011;4370;48.916;8.380;2022-10-16T15:47:18;3.23;;;2.17;;
8665;SDS011;4370;48.916;8.380;2022-10-16T15:49:44;3.00;;;2.80;;
8665;SDS011;4370;48.916;8.380;2022-10-16T15:52:10;6.53;;;2.70;;
8665;SDS011;4370;48.916;8.380;2022-10-16T15:54:36;2.60;;;2.40;;
8665;SDS011;4370;48.916;8.380;2022-10-16T15:57:02;6.63;;;2.53;;
8665;SDS011;4370;48.916;8.380;2022-10-16T15:59:28;5.27;;;2.83;;
8665;SDS011;4370;48.916;8.380;2022-10-16T16:01:53;5.53;;;2.40;;
8665;SDS011;4370;48.916;8.380;2022-10-16T16:04:19;3.03;;;2.60;;
8665;SDS011;4370;48.916;8.380;2022-10-16T16:06:45;4.07;;;2.60;;
8665;SDS011;4370;48.916;8.380;2022-10-16T16:09:12;3.90;;;2.67;;
8665;SDS011;4370;48.916;8.380;2022-10-16T16:11:38;4.07;;;2.63;;
8665;SDS011;4370;48.916;8.380;2022-10-16T16:14:05;4.30;;;2.67;;
8665;SDS011;4370;48.916;8.380;2022-10-16T16:16:31;3.43;;;2.30;;
8665;SDS011;4370;48.916;8.380;2022-10-16T16:19:03;3.17;;;2.87;;
8665;SDS011;4370;48.916;8.380;2022-10-16T16:21:29;4.30;;;2.40;;
8665;SDS011;4370;48.916;8.380;2022-10-16T16:23:55;4.93;;;2.40;;
8665;SDS011;4370;48.916;8.380;2022-10-16T16:26:22;11.85;;;3.40;;
8665;SDS011;4370;48.916;8.380;2022-10-16T16:28:51;10.17;;;3.30;;
8665;SDS011;4370;48.916;8.380;2022-10-16T16:31:17;7.10;;;2.97;;
8665;SDS011;4370;48.916;8.380;2022-10-16T16:33:43;10.50;;;3.10;;
8665;SDS011;4370;48.916;8.380;2022-10-16T16:36:10;5.13;;;2.77;;
8665;SDS011;4370;48.916;8.380;2022-10-16T16:38:36;8.17;;;2.97;;
8665;SDS011;4370;48.916;8.380;2022-10-16T16:41:15;6.80;;;2.70;;
8665;SDS011;4370;48.916;8.380;2022-10-16T16:43:42;5.67;;;3.13;;
8665;SDS011;4370;48.916;8.380;2022-10-16T16:46:08;5.40;;;2.97;;
8665;SDS011;4370;48.916;8.380;2022-10-16T16:48:35;7.63;;;3.43;;
8665;SDS011;4370;48.916;8.380;2022-10-16T16:51:04;6.40;;;3.43;;
8665;SDS011;4370;48.916;8.380;2022-10-16T16:53:33;4.07;;;2.83;;
8665;SDS011;4370;48.916;8.380;2022-10-16T16:56:03;4.43;;;2.80;;
8665;SDS011;4370;48.916;8.380;2022-10-16T16:58:29;8.87;;;3.13;;
8665;SDS011;4370;48.916;8.380;2022-10-16T17:00:55;4.60;;;3.00;;
8665;SDS011;4370;48.916;8.380;2022-10-16T17:03:25;4.20;;;2.87;;
8665;SDS011;4370;48.916;8.380;2022-10-16T17:05:54;5.93;;;2.80;;
8665;SDS011;4370;48.916;8.380;2022-10-16T17:08:24;4.60;;;2.97;;
8665;SDS011;4370;48.916;8.380;2022-10-16T17:10:50;5.13;;;3.00;;
8665;SDS011;4370;48.916;8.380;2022-10-16T17:13:19;6.33;;;3.37;;
8665;SDS011;4370;48.916;8.380;2022-10-16T17:15:46;6.33;;;2.93;;
8665;SDS011;4370;48.916;8.380;2022-10-16T17:18:13;6.47;;;3.37;;
8665;SDS011;4370;48.916;8.380;2022-10-16T17:20:39;6.80;;;3.67;;
8665;SDS011;4370;48.916;8.380;2022-10-16T17:23:06;8.23;;;3.57;;